Wednesday, August 15, 2018, 3:44 AM CDT
Back to Local

KJOT, Joliet, Joliet Regional Airport

Location: Joliet, IL, United States Lat: 41.518
Local Time: 3:44 AM CDT ( 8:44 GMT) Lon: -88.175
Time Zone: US/Central Elev: 580 ft

Show me the last for .
Show Decoded

2018-08-15 03:15 METAR KJOT 150815Z AUTO 00000KT 10SM CLR 21/19 A2996 RMK AO2 T02060194 =
2018-08-15 02:55 METAR KJOT 150755Z AUTO 00000KT 10SM CLR 21/20 A2995 RMK AO2 T02130195 =
2018-08-15 02:35 METAR KJOT 150735Z AUTO 00000KT 10SM CLR 22/20 A2994 RMK AO2 T02190196 =
2018-08-15 02:15 METAR KJOT 150715Z AUTO 00000KT 10SM CLR 22/19 A2994 RMK AO2 T02220192 =
2018-08-15 01:55 METAR KJOT 150655Z AUTO 00000KT 10SM CLR 22/19 A2994 RMK AO2 T02210191 =
2018-08-15 01:35 METAR KJOT 150635Z AUTO 00000KT 10SM CLR 22/19 A2994 RMK AO2 T02170190 =
2018-08-15 01:15 METAR KJOT 150615Z AUTO 00000KT 10SM CLR 21/19 A2994 RMK AO2 T02100192 =
2018-08-15 00:55 METAR KJOT 150555Z AUTO 00000KT 10SM CLR 21/19 A2995 RMK AO2 T02070185 10295
                 20207 403200159 =
2018-08-15 00:35 METAR KJOT 150535Z AUTO 00000KT 10SM CLR 22/19 A2995 RMK AO2 T02200187 =
2018-08-15 00:15 METAR KJOT 150515Z AUTO 00000KT 10SM CLR 22/19 A2996 RMK AO2 T02200186 =
2018-08-14 23:55 METAR KJOT 150455Z AUTO 00000KT 10SM CLR 21/19 A2996 RMK AO2 T02070187 =
2018-08-14 23:35 METAR KJOT 150435Z AUTO 00000KT 10SM CLR 21/19 A2996 RMK AO2 T02120186 =
2018-08-14 23:15 METAR KJOT 150415Z AUTO 00000KT 10SM CLR 22/18 A2996 RMK AO2 T02160179 =
2018-08-14 22:55 METAR KJOT 150355Z AUTO 00000KT 10SM CLR 23/18 A2997 RMK AO2 T02320182 =
2018-08-14 22:35 METAR KJOT 150335Z AUTO 00000KT 10SM CLR 23/18 A2997 RMK AO2 T02300183 =
2018-08-14 22:15 METAR KJOT 150315Z AUTO 00000KT 10SM CLR 24/18 A2997 RMK AO2 T02420183 =
2018-08-14 21:55 METAR KJOT 150255Z AUTO 00000KT 10SM CLR 23/19 A2997 RMK AO2 T02330186 =
2018-08-14 21:35 METAR KJOT 150235Z AUTO 00000KT 10SM CLR 24/19 A2997 RMK AO2 T02440186 =
2018-08-14 21:15 METAR KJOT 150215Z AUTO 00000KT 10SM CLR 24/19 A2996 RMK AO2 T02440185 =
2018-08-14 20:55 METAR KJOT 150155Z AUTO 00000KT 10SM CLR 25/18 A2996 RMK AO2 T02510181 =
2018-08-14 20:35 METAR KJOT 150135Z AUTO 00000KT 10SM CLR 25/18 A2995 RMK AO2 T02540178 =
2018-08-14 20:15 METAR KJOT 150115Z AUTO 00000KT 10SM CLR 26/18 A2995 RMK AO2 T02590181 =
2018-08-14 19:55 METAR KJOT 150055Z AUTO 00000KT 10SM CLR 27/18 A2995 RMK AO2 T02680179 =
2018-08-14 19:35 METAR KJOT 150035Z AUTO 18004KT 10SM CLR 26/19 A2995 RMK AO2 T02600187 =
2018-08-14 19:15 METAR KJOT 150015Z AUTO 00000KT 10SM CLR 29/18 A2994 RMK AO2 LTG DSNT SW
                 T02880175 =
2018-08-14 18:55 METAR KJOT 142355Z AUTO 00000KT 10SM CLR 30/17 A2994 RMK AO2 T02950171 10320
                 20295 =
2018-08-14 18:35 METAR KJOT 142335Z AUTO 23003KT 10SM CLR 30/18 A2995 RMK AO2 T02960175 =
2018-08-14 18:15 METAR KJOT 142315Z AUTO 22003KT 10SM CLR 31/16 A2995 RMK AO2 T03070163 =
2018-08-14 17:55 METAR KJOT 142255Z AUTO 21003KT 10SM CLR 31/17 A2995 RMK AO2 T03100165 =
2018-08-14 17:35 METAR KJOT 142235Z AUTO 23003KT 10SM CLR 31/16 A2996 RMK AO2 T03070161 =
2018-08-14 17:15 METAR KJOT 142215Z AUTO 21004KT 10SM CLR 31/16 A2996 RMK AO2 T03090163 =
2018-08-14 16:55 METAR KJOT 142155Z AUTO 23003KT 10SM SCT060 31/16 A2995 RMK AO2 T03090164 =
2018-08-14 16:35 METAR KJOT 142135Z AUTO 20003KT 10SM CLR 32/16 A2995 RMK AO2 T03150163 =
2018-08-14 16:15 METAR KJOT 142115Z AUTO 26006KT 10SM CLR 32/16 A2996 RMK AO2 T03150164 =
2018-08-14 15:55 METAR KJOT 142055Z AUTO 23006KT 10SM CLR 31/16 A2996 RMK AO2 T03100161 =
2018-08-14 15:35 METAR KJOT 142035Z AUTO 00000KT 10SM SCT060 31/16 A2997 RMK AO2 T03100158 =
2018-08-14 15:15 METAR KJOT 142015Z AUTO 24008KT 10SM SCT060 32/16 A2997 RMK AO2 T03170158 =
2018-08-14 14:55 METAR KJOT 141955Z AUTO 24006KT 10SM CLR 32/16 A2998 RMK AO2 T03180158 =
2018-08-14 14:35 METAR KJOT 141935Z AUTO 21008KT 170V230 10SM CLR 32/16 A2998 RMK AO2 T03180162 =
2018-08-14 14:15 METAR KJOT 141915Z AUTO 24005KT 10SM CLR 31/16 A2999 RMK AO2 T03140156 =
2018-08-14 13:55 METAR KJOT 141855Z AUTO 22006KT 10SM CLR 32/15 A2999 RMK AO2 T03150154 =
2018-08-14 13:35 METAR KJOT 141835Z AUTO 23005KT 10SM SCT055 31/17 A2999 RMK AO2 T03140166 =
2018-08-14 13:15 METAR KJOT 141815Z AUTO 00000KT 10SM SCT049 31/17 A3000 RMK AO2 T03060170 =
2018-08-14 12:55 METAR KJOT 141755Z AUTO 00000KT 10SM SCT049 SCT055 31/18 A3001 RMK AO2 T03060175
                 10307 20174 =
2018-08-14 12:35 METAR KJOT 141735Z AUTO 00000KT 10SM SCT049 SCT055 31/18 A3000 RMK AO2 T03060178
                 =
2018-08-14 12:15 METAR KJOT 141715Z AUTO 11003KT 10SM SCT049 30/19 A3000 RMK AO2 T03000186 =
2018-08-14 11:55 METAR KJOT 141655Z AUTO 23003KT 10SM SCT049 30/19 A3001 RMK AO2 T02960186 =
2018-08-14 11:35 METAR KJOT 141635Z AUTO 00000KT 10SM CLR 30/19 A3001 RMK AO2 T02950192 =
2018-08-14 11:15 METAR KJOT 141615Z AUTO 23004KT 10SM CLR 29/19 A3002 RMK AO2 T02920193 =
2018-08-14 10:55 METAR KJOT 141555Z AUTO 24006KT 10SM CLR 28/19 A3002 RMK AO2 T02840193 =
2018-08-14 10:35 METAR KJOT 141535Z AUTO 26004KT 10SM CLR 28/19 A3002 RMK AO2 T02820189 =
2018-08-14 10:15 METAR KJOT 141515Z AUTO 27005KT 10SM CLR 27/19 A3002 RMK AO2 T02740189 =
2018-08-14 09:55 METAR KJOT 141455Z AUTO 21005KT 10SM CLR 26/20 A3002 RMK AO2 T02630197 =
2018-08-14 09:35 METAR KJOT 141435Z AUTO 23003KT 10SM CLR 26/19 A3002 RMK AO2 T02560193 =
2018-08-14 09:15 METAR KJOT 141415Z AUTO 26004KT 10SM CLR 25/19 A3002 RMK AO2 T02490186 =
2018-08-14 08:55 METAR KJOT 141355Z AUTO 24003KT 7SM CLR 25/19 A3002 RMK AO2 T02460194 =
2018-08-14 08:35 METAR KJOT 141335Z AUTO 00000KT 7SM CLR 23/20 A3002 RMK AO2 T02310195 =
2018-08-14 08:15 METAR KJOT 141315Z AUTO 00000KT 10SM CLR 22/19 A3002 RMK AO2 T02220187 =
2018-08-14 07:55 METAR KJOT 141255Z AUTO 00000KT 7SM CLR 21/19 A3002 RMK AO2 T02130193 =
2018-08-14 07:35 METAR KJOT 141235Z AUTO 00000KT 7SM CLR 20/19 A3001 RMK AO2 T02000186 =
2018-08-14 07:15 METAR KJOT 141215Z AUTO 00000KT 7SM CLR 19/18 A3001 RMK AO2 T01870182 =
2018-08-14 06:55 METAR KJOT 141155Z AUTO 00000KT 7SM CLR 17/17 A3001 RMK AO2 T01720172 10192
                 20159 =
2018-08-14 06:35 METAR KJOT 141135Z AUTO 00000KT 4SM BR CLR 17/17 A3001 RMK AO2 T01660166 =
2018-08-14 06:15 METAR KJOT 141115Z AUTO 00000KT 2SM BR CLR 16/16 A3001 RMK AO2 VIS 1 1/4V3
                 T01590159 =
2018-08-14 05:55 METAR KJOT 141055Z AUTO 00000KT 4SM BR CLR 16/16 A3001 RMK AO2 T01630163 =
2018-08-14 05:35 METAR KJOT 141035Z AUTO 00000KT 2 1/2SM BR CLR 16/16 A3001 RMK AO2 VIS 1V4
                 T01610161 =
2018-08-14 05:15 METAR KJOT 141015Z AUTO 00000KT 4SM BR CLR 17/17 A3001 RMK AO2 T01690169 =
2018-08-14 04:55 METAR KJOT 140955Z AUTO 00000KT 2SM BR CLR 17/17 A3000 RMK AO2 VIS 1/2V5
                 T01710171 =
2018-08-14 04:35 METAR KJOT 140935Z AUTO 00000KT 7SM CLR 17/16 A3000 RMK AO2 T01650164 =
2018-08-14 04:15 METAR KJOT 140915Z AUTO 00000KT 5SM BR CLR 17/17 A3000 RMK AO2 T01660166 =
2018-08-14 03:55 METAR KJOT 140855Z AUTO 00000KT 4SM BR CLR 17/17 A3000 RMK AO2 T01690167 =

Support USWX by starting your Amazon purchase here.